Time;durP1;ratioP1;P1;durP2;ratioP2;P2;SDS_P1;SDS_P2;PMS_P1;PMS_P2;Temp;Humidity;BMP_temperature;BMP_pressure;BME280_temperature;BME280_humidity;BME280_pressure;Samples;Min_cycle;Max_cycle;Signal;HPM_P1;HPM_P2
2022/07/15 00:01:02;;;;;;;;;;;;;;;15.40;100.00;99954.44;5074610;28;19928;-76
2022/07/15 00:03:29;;;;;;;;;;;;;;;15.50;100.00;99959.84;5073335;28;20035;-77
2022/07/15 00:05:56;;;;;;;;;;;;;;;15.29;100.00;99957.47;5074388;28;20339;-76
2022/07/15 00:08:23;;;;;;;;;;;;;;;16.06;100.00;99967.00;5073285;28;20009;-76
2022/07/15 00:10:50;;;;;;;;;;;;;;;16.32;100.00;99955.91;5056522;28;19925;-77
2022/07/15 00:13:17;;;;;;;;;;;;;;;16.42;100.00;99949.22;5073193;28;19931;-77
2022/07/15 00:15:44;;;;;;;;;;;;;;;16.49;100.00;99954.72;5074300;28;20329;-77
2022/07/15 00:18:11;;;;;;;;;;;;;;;16.57;100.00;99948.44;5072810;28;20375;-77
2022/07/15 00:20:40;;;;;;;;;;;;;;;16.44;100.00;99938.31;5072851;28;19956;-77
2022/07/15 00:23:07;;;;;;;;;;;;;;;16.20;100.00;99932.84;5073030;28;19924;-77
2022/07/15 00:25:34;;;;;;;;;;;;;;;16.72;100.00;99946.81;5074343;28;19924;-76
2022/07/15 00:28:06;;;;;;;;;;;;;;;17.02;100.00;99939.97;5073022;28;20213;-77
2022/07/15 00:30:34;;;;;;;;;;;;;;;16.72;100.00;99941.16;5056028;28;19931;-77
2022/07/15 00:33:02;;;;;;;;;;;;;;;16.51;100.00;99946.59;5072740;28;19932;-76
2022/07/15 00:35:30;;;;;;;;;;;;;;;16.41;100.00;99936.34;5072594;28;19924;-77
2022/07/15 00:37:57;;;;;;;;;;;;;;;16.44;100.00;99924.19;5072828;28;19931;-77
2022/07/15 00:40:25;;;;;;;;;;;;;;;16.08;100.00;99929.94;5072627;28;19924;-77
2022/07/15 00:42:52;;;;;;;;;;;;;;;16.40;100.00;99929.13;5072642;28;19932;-77
2022/07/15 00:45:21;;;;;;;;;;;;;;;16.75;100.00;99920.53;5072448;28;19932;-77
2022/07/15 00:47:49;;;;;;;;;;;;;;;16.27;100.00;99919.81;5073697;28;19924;-77
2022/07/15 00:50:17;;;;;;;;;;;;;;;16.58;100.00;99923.84;5072240;28;19999;-77
2022/07/15 00:52:45;;;;;;;;;;;;;;;16.85;100.00;99915.84;5072378;28;19970;-76
2022/07/15 00:55:13;;;;;;;;;;;;;;;16.82;100.00;99913.91;5073587;28;19928;-77
2022/07/15 00:57:43;;;;;;;;;;;;;;;16.67;100.00;99915.53;5055626;28;20379;-77
2022/07/15 01:00:11;;;;;;;;;;;;;;;16.49;100.00;99903.94;5072201;28;19925;-77
2022/07/15 01:02:38;;;;;;;;;;;;;;;16.38;100.00;99900.56;5072127;28;20017;-77
2022/07/15 01:05:07;;;;;;;;;;;;;;;16.20;100.00;99899.00;5038989;28;20306;-77
2022/07/15 01:07:35;;;;;;;;;;;;;;;16.48;100.00;99903.13;5073513;28;19924;-77
2022/07/15 01:10:02;;;;;;;;;;;;;;;16.56;100.00;99890.44;5072117;28;20391;-77
2022/07/15 01:12:30;;;;;;;;;;;;;;;16.42;100.00;99887.16;5072025;28;19924;-77
2022/07/15 01:14:57;;;;;;;;;;;;;;;16.69;100.00;99887.66;5072021;28;19925;-77
2022/07/15 01:17:25;;;;;;;;;;;;;;;16.34;100.00;99880.94;5071779;28;19924;-77
2022/07/15 01:19:52;;;;;;;;;;;;;;;16.81;100.00;99878.47;5055434;28;20157;-76
2022/07/15 01:22:20;;;;;;;;;;;;;;;16.47;100.00;99883.81;5055431;28;19924;-76
2022/07/15 01:24:48;;;;;;;;;;;;;;;16.50;100.00;99871.66;5055399;28;19924;-77
2022/07/15 01:27:22;;;;;;;;;;;;;;;16.24;100.00;99860.22;5069944;28;19928;-76
2022/07/15 01:29:51;;;;;;;;;;;;;;;16.57;100.00;99865.84;5039351;28;19924;-76
2022/07/15 01:32:21;;;;;;;;;;;;;;;16.21;100.00;99861.09;5071578;28;19925;-77
2022/07/15 01:34:48;;;;;;;;;;;;;;;16.39;100.00;99857.81;5071914;28;20340;-77
2022/07/15 01:37:17;;;;;;;;;;;;;;;16.20;100.00;99864.38;5071800;28;20372;-77
2022/07/15 01:39:50;;;;;;;;;;;;;;;16.48;100.00;99866.47;5071764;28;20006;-77
2022/07/15 01:42:18;;;;;;;;;;;;;;;16.55;100.00;99873.94;5072751;28;19924;-77
2022/07/15 01:44:45;;;;;;;;;;;;;;;16.64;100.00;99860.78;5071653;28;20027;-77
2022/07/15 01:47:13;;;;;;;;;;;;;;;16.83;100.00;99856.22;5054801;28;19951;-77
2022/07/15 01:49:40;;;;;;;;;;;;;;;16.81;100.00;99853.06;5055047;28;19925;-77
2022/07/15 01:52:10;;;;;;;;;;;;;;;16.88;100.00;99861.31;5055653;28;19947;-77
2022/07/15 01:54:39;;;;;;;;;;;;;;;16.91;100.00;99851.94;5071697;28;19928;-77
2022/07/15 01:57:07;;;;;;;;;;;;;;;16.70;100.00;99847.72;5071514;28;19967;-77
2022/07/15 02:00:01;;;;;;;;;;;;;;;16.82;100.00;99851.81;5069751;28;19954;-76
2022/07/15 02:02:43;;;;;;;;;;;;;;;16.97;100.00;99844.50;5072644;28;19928;-77
2022/07/15 02:05:13;;;;;;;;;;;;;;;16.65;100.00;99844.63;5071576;28;20481;-77
2022/07/15 02:07:40;;;;;;;;;;;;;;;17.18;100.00;99844.66;5071517;28;20403;-77
2022/07/15 02:10:11;;;;;;;;;;;;;;;16.91;100.00;99838.63;5054802;28;20031;-77
2022/07/15 02:12:43;;;;;;;;;;;;;;;16.72;100.00;99838.81;5054862;28;19928;-76
2022/07/15 02:15:11;;;;;;;;;;;;;;;16.71;100.00;99842.84;5071273;28;20013;-77
2022/07/15 02:17:47;;;;;;;;;;;;;;;16.80;100.00;99843.78;5071205;28;19932;-76
2022/07/15 02:20:15;;;;;;;;;;;;;;;16.73;100.00;99843.19;5054712;28;19951;-77
2022/07/15 02:22:42;;;;;;;;;;;;;;;16.77;100.00;99841.06;5072646;28;19924;-77
2022/07/15 02:25:10;;;;;;;;;;;;;;;17.24;100.00;99842.06;5054741;28;19973;-77
2022/07/15 02:27:38;;;;;;;;;;;;;;;17.43;100.00;99838.28;5071299;28;19932;-77
2022/07/15 02:30:05;;;;;;;;;;;;;;;17.29;100.00;99827.41;5054348;28;19928;-77
2022/07/15 02:32:35;;;;;;;;;;;;;;;17.14;100.00;99831.91;5071364;28;19925;-77
2022/07/15 02:35:05;;;;;;;;;;;;;;;17.29;100.00;99827.41;5054686;28;20027;-77
2022/07/15 02:37:32;;;;;;;;;;;;;;;17.44;100.00;99828.56;5071167;28;19925;-77
2022/07/15 02:39:59;;;;;;;;;;;;;;;17.47;100.00;99827.66;5072220;28;19931;-77
2022/07/15 02:42:27;;;;;;;;;;;;;;;17.23;100.00;99824.34;5071294;28;20502;-77
2022/07/15 02:44:55;;;;;;;;;;;;;;;17.60;100.00;99819.97;5054420;28;19932;-77
2022/07/15 02:47:22;;;;;;;;;;;;;;;17.69;100.00;99817.28;5054589;28;20350;-77
2022/07/15 02:49:51;;;;;;;;;;;;;;;17.61;100.00;99825.19;5071159;28;19931;-77
2022/07/15 02:52:19;;;;;;;;;;;;;;;17.44;100.00;99822.91;5071120;28;19948;-77
2022/07/15 02:54:49;;;;;;;;;;;;;;;16.99;100.00;99831.56;5073113;28;19925;-77
2022/07/15 02:57:19;;;;;;;;;;;;;;;16.87;100.00;99834.34;5074563;28;20372;-77
2022/07/15 02:59:47;;;;;;;;;;;;;;;17.02;100.00;99827.84;5074420;28;19931;-77
2022/07/15 03:02:14;;;;;;;;;;;;;;;16.56;100.00;99836.03;5074557;28;19935;-77
2022/07/15 03:04:41;;;;;;;;;;;;;;;17.31;100.00;99847.53;5041187;28;19978;-77
2022/07/15 03:07:08;;;;;;;;;;;;;;;17.46;100.00;99840.22;5057690;28;19925;-77
2022/07/15 03:09:36;;;;;;;;;;;;;;;17.54;100.00;99833.88;5074288;28;19925;-77
2022/07/15 03:12:03;;;;;;;;;;;;;;;17.44;100.00;99839.88;5075644;28;19925;-77
2022/07/15 03:14:30;;;;;;;;;;;;;;;16.34;100.00;99846.28;5074213;28;20013;-77
2022/07/15 03:16:58;;;;;;;;;;;;;;;16.76;100.00;99847.94;5057394;28;20363;-77
2022/07/15 03:19:25;;;;;;;;;;;;;;;17.24;100.00;99836.44;5074226;28;19924;-77
2022/07/15 03:21:52;;;;;;;;;;;;;;;17.17;100.00;99843.09;5074087;28;20062;-77
2022/07/15 03:24:21;;;;;;;;;;;;;;;17.06;100.00;99836.16;5074147;28;19925;-77
2022/07/15 03:26:49;;;;;;;;;;;;;;;17.16;100.00;99832.25;5057377;28;19925;-77
2022/07/15 03:29:16;;;;;;;;;;;;;;;17.28;100.00;99837.13;5073893;28;19924;-77
2022/07/15 03:31:43;;;;;;;;;;;;;;;17.60;100.00;99831.28;5057307;28;19925;-77
2022/07/15 03:34:14;;;;;;;;;;;;;;;17.25;100.00;99832.38;5074106;28;19925;-77
2022/07/15 03:36:41;;;;;;;;;;;;;;;17.46;100.00;99837.41;5073791;28;19931;-77
2022/07/15 03:39:09;;;;;;;;;;;;;;;17.32;100.00;99832.16;5073803;28;20035;-77
2022/07/15 03:41:36;;;;;;;;;;;;;;;17.25;100.00;99824.69;5074059;28;20387;-77
2022/07/15 03:44:04;;;;;;;;;;;;;;;17.04;100.00;99830.97;5073669;28;19951;-77
2022/07/15 03:46:31;;;;;;;;;;;;;;;17.01;100.00;99833.94;5057260;28;19932;-77
2022/07/15 03:49:01;;;;;;;;;;;;;;;16.98;100.00;99827.13;5073688;28;19928;-77
2022/07/15 03:51:30;;;;;;;;;;;;;;;17.05;100.00;99826.13;5073498;28;19925;-77
2022/07/15 03:54:01;;;;;;;;;;;;;;;16.82;100.00;99826.41;5057045;28;19924;-77
2022/07/15 03:56:29;;;;;;;;;;;;;;;17.07;100.00;99826.47;5056937;28;19931;-77
2022/07/15 03:58:56;;;;;;;;;;;;;;;17.10;100.00;99809.41;5073393;28;19974;-77
2022/07/15 04:01:23;;;;;;;;;;;;;;;17.19;100.00;99806.72;5073489;28;20230;-77
2022/07/15 04:03:51;;;;;;;;;;;;;;;17.21;100.00;99820.38;5073500;28;19956;-77
2022/07/15 04:06:20;;;;;;;;;;;;;;;17.23;100.00;99812.25;5089394;28;19931;-77
2022/07/15 04:08:49;;;;;;;;;;;;;;;17.44;100.00;99817.28;5073194;28;20474;-76
2022/07/15 04:11:16;;;;;;;;;;;;;;;17.24;100.00;99819.47;5073194;28;19925;-77
2022/07/15 04:13:44;;;;;;;;;;;;;;;17.38;100.00;99808.53;5056821;28;20392;-77
2022/07/15 04:16:14;;;;;;;;;;;;;;;17.32;100.00;99816.00;5055786;28;19948;-77
2022/07/15 04:18:41;;;;;;;;;;;;;;;16.97;100.00;99819.09;5073028;28;19925;-77
2022/07/15 04:21:08;;;;;;;;;;;;;;;17.01;100.00;99816.97;5056388;28;19924;-77
2022/07/15 04:23:38;;;;;;;;;;;;;;;17.20;100.00;99813.16;5056000;28;20197;-77
2022/07/15 04:26:07;;;;;;;;;;;;;;;17.30;100.00;99806.38;5056082;28;19929;-77
2022/07/15 04:28:34;;;;;;;;;;;;;;;17.61;100.00;99813.09;5056203;28;19960;-77
2022/07/15 04:31:01;;;;;;;;;;;;;;;17.37;100.00;99817.47;5072926;28;19924;-77
2022/07/15 04:33:38;;;;;;;;;;;;;;;17.35;100.00;99819.94;5072094;28;19932;-77
2022/07/15 04:36:06;;;;;;;;;;;;;;;17.45;100.00;99821.66;5072706;28;19924;-77
2022/07/15 04:38:34;;;;;;;;;;;;;;;17.54;100.00;99810.47;5072630;28;20063;-77
2022/07/15 04:41:01;;;;;;;;;;;;;;;17.52;100.00;99818.63;5055845;28;19990;-77
2022/07/15 04:43:28;;;;;;;;;;;;;;;17.48;100.00;99824.38;5056170;28;19933;-77
2022/07/15 04:45:55;;;;;;;;;;;;;;;17.44;100.00;99818.06;5072633;28;19925;-77
2022/07/15 04:51:11;;;;;;;;;;;;;;;17.53;100.00;99814.56;5056024;28;19928;-77
2022/07/15 04:53:39;;;;;;;;;;;;;;;17.68;100.00;99826.97;5072414;28;19924;-77
2022/07/15 04:56:06;;;;;;;;;;;;;;;17.65;100.00;99816.59;5055495;28;19924;-77
2022/07/15 04:58:35;;;;;;;;;;;;;;;17.65;100.00;99828.69;5072283;28;19925;-77
2022/07/15 05:01:05;;;;;;;;;;;;;;;17.81;100.00;99819.28;5072369;28;19947;-77
2022/07/15 05:03:32;;;;;;;;;;;;;;;17.77;100.00;99827.88;5072402;28;19924;-77
2022/07/15 05:06:00;;;;;;;;;;;;;;;17.62;100.00;99834.44;5055563;28;20342;-77
2022/07/15 05:08:35;;;;;;;;;;;;;;;17.76;100.00;99839.63;5055545;28;19931;-77
2022/07/15 05:11:02;;;;;;;;;;;;;;;17.61;100.00;99832.88;5072038;28;19932;-77
2022/07/15 05:13:30;;;;;;;;;;;;;;;17.65;100.00;99823.03;5072163;28;19951;-77
2022/07/15 05:15:59;;;;;;;;;;;;;;;17.82;100.00;99815.22;5072012;28;19963;-77
2022/07/15 05:18:28;;;;;;;;;;;;;;;17.64;100.00;99809.34;5071078;28;19925;-77
2022/07/15 05:20:57;;;;;;;;;;;;;;;17.40;100.00;99816.56;5071979;28;20361;-77
2022/07/15 05:23:28;;;;;;;;;;;;;;;17.62;100.00;99812.63;5072045;28;19948;-77
2022/07/15 05:26:01;;;;;;;;;;;;;;;18.06;100.00;99813.56;5072000;28;19935;-77
2022/07/15 05:28:28;;;;;;;;;;;;;;;18.14;100.00;99814.94;5071935;28;19928;-77
2022/07/15 05:30:55;;;;;;;;;;;;;;;18.16;100.00;99808.81;5073165;28;20375;-77
2022/07/15 05:33:22;;;;;;;;;;;;;;;18.13;100.00;99804.84;5071718;28;20536;-77
2022/07/15 05:35:51;;;;;;;;;;;;;;;18.29;100.00;99815.22;5071929;28;19925;-77
2022/07/15 05:38:21;;;;;;;;;;;;;;;18.20;100.00;99815.94;5088489;28;20283;-77
2022/07/15 05:40:49;;;;;;;;;;;;;;;18.05;100.00;99828.97;5055263;28;20011;-77
2022/07/15 05:43:16;;;;;;;;;;;;;;;17.69;100.00;99814.44;5071789;28;19925;-77
2022/07/15 05:45:45;;;;;;;;;;;;;;;17.39;100.00;99820.63;5071773;28;19928;-76
2022/07/15 05:48:12;;;;;;;;;;;;;;;17.34;100.00;99815.56;5072812;28;19929;-77
2022/07/15 05:50:49;;;;;;;;;;;;;;;17.31;100.00;99813.63;5071830;28;19924;-77
2022/07/15 05:53:16;;;;;;;;;;;;;;;17.36;100.00;99816.66;5071497;28;20014;-77
2022/07/15 05:55:44;;;;;;;;;;;;;;;17.49;100.00;99817.47;5071721;28;19974;-76
2022/07/15 05:58:17;;;;;;;;;;;;;;;17.68;100.00;99818.50;5071554;28;19925;-77
2022/07/15 06:00:44;;;;;;;;;;;;;;;17.57;100.00;99809.56;5071687;28;20318;-77
2022/07/15 06:03:11;;;;;;;;;;;;;;;17.33;100.00;99802.66;5072792;28;19924;-77
2022/07/15 06:05:42;;;;;;;;;;;;;;;17.38;100.00;99807.75;5071601;28;20372;-77
2022/07/15 06:08:10;;;;;;;;;;;;;;;17.03;100.00;99803.19;5054647;28;19929;-77
2022/07/15 06:10:41;;;;;;;;;;;;;;;16.93;100.00;99810.75;5071611;28;19947;-77
2022/07/15 06:13:08;;;;;;;;;;;;;;;17.20;100.00;99810.34;5071509;28;19931;-77
2022/07/15 06:15:36;;;;;;;;;;;;;;;17.11;100.00;99810.22;5071516;28;19946;-77
2022/07/15 06:18:05;;;;;;;;;;;;;;;17.11;100.00;99802.53;5071274;28;20295;-77
2022/07/15 06:20:32;;;;;;;;;;;;;;;17.36;100.00;99810.22;5054768;28;20318;-76
2022/07/15 06:23:00;;;;;;;;;;;;;;;17.48;100.00;99806.63;5072533;28;19925;-77
2022/07/15 06:25:27;;;;;;;;;;;;;;;17.51;100.00;99800.06;5054784;28;19928;-76
2022/07/15 06:27:54;;;;;;;;;;;;;;;17.63;100.00;99807.78;5072628;28;19928;-76
2022/07/15 06:30:21;;;;;;;;;;;;;;;17.97;100.00;99799.34;5074186;28;19924;-77
2022/07/15 06:32:49;;;;;;;;;;;;;;;18.34;100.00;99794.81;5075280;28;20064;-76
2022/07/15 06:35:16;;;;;;;;;;;;;;;18.49;100.00;99787.44;5075109;28;19924;-77
2022/07/15 06:37:43;;;;;;;;;;;;;;;18.71;100.00;99783.34;5058184;28;19931;-77
2022/07/15 06:40:11;;;;;;;;;;;;;;;19.00;100.00;99777.41;5074929;28;20017;-77
2022/07/15 06:42:38;;;;;;;;;;;;;;;19.01;100.00;99771.28;5074948;28;19931;-77
2022/07/15 06:45:09;;;;;;;;;;;;;;;19.26;100.00;99765.44;5058266;28;19925;-77
2022/07/15 06:47:41;;;;;;;;;;;;;;;19.49;100.00;99762.06;5074828;28;20031;-77
2022/07/15 06:50:09;;;;;;;;;;;;;;;20.20;100.00;99757.06;5058095;28;19925;-77
2022/07/15 06:52:40;;;;;;;;;;;;;;;20.38;100.00;99756.25;5058040;28;20303;-77
2022/07/15 06:55:08;;;;;;;;;;;;;;;20.55;100.00;99757.50;5074776;28;20295;-77
2022/07/15 06:57:35;;;;;;;;;;;;;;;20.15;100.00;99748.34;5074660;28;19932;-77
2022/07/15 07:00:04;;;;;;;;;;;;;;;20.50;100.00;99746.78;5074403;28;19968;-77
2022/07/15 07:02:34;;;;;;;;;;;;;;;20.64;100.00;99748.97;5074657;28;20009;-77
2022/07/15 07:05:02;;;;;;;;;;;;;;;20.87;100.00;99736.94;5074244;28;19940;-77
2022/07/15 07:07:30;;;;;;;;;;;;;;;21.02;100.00;99732.97;5074454;28;19929;-77
2022/07/15 07:09:57;;;;;;;;;;;;;;;21.11;100.00;99732.16;5057927;28;20013;-77
2022/07/15 07:12:25;;;;;;;;;;;;;;;21.15;100.00;99733.56;5074600;28;20326;-77
2022/07/15 07:14:53;;;;;;;;;;;;;;;20.70;100.00;99730.03;5074308;28;20338;-77
2022/07/15 07:17:20;;;;;;;;;;;;;;;20.24;100.00;99734.19;5073953;28;19934;-77
2022/07/15 07:19:47;;;;;;;;;;;;;;;20.05;100.00;99730.53;5073949;28;19924;-77
2022/07/15 07:22:14;;;;;;;;;;;;;;;20.32;100.00;99729.78;5074403;28;20498;-77
2022/07/15 07:24:41;;;;;;;;;;;;;;;19.99;100.00;99728.78;5074284;28;19938;-77
2022/07/15 07:27:10;;;;;;;;;;;;;;;19.88;100.00;99728.44;5074188;28;19924;-77
2022/07/15 07:29:37;;;;;;;;;;;;;;;19.57;100.00;99740.69;5073993;28;19925;-77
2022/07/15 07:32:04;;;;;;;;;;;;;;;19.63;100.00;99744.47;5073587;28;20017;-77
2022/07/15 07:34:32;;;;;;;;;;;;;;;19.53;100.00;99744.91;5073864;28;19930;-77
2022/07/15 07:36:59;;;;;;;;;;;;;;;19.58;100.00;99744.31;5075168;28;19925;-77
2022/07/15 07:39:26;;;;;;;;;;;;;;;19.23;100.00;99737.22;5073899;28;19924;-77
2022/07/15 07:41:53;;;;;;;;;;;;;;;19.39;100.00;99751.97;5056241;28;19932;-77
2022/07/15 07:44:21;;;;;;;;;;;;;;;18.96;100.00;99739.94;5057137;28;19924;-77
2022/07/15 07:46:48;;;;;;;;;;;;;;;18.88;100.00;99738.63;5057045;28;19924;-77
2022/07/15 07:49:15;;;;;;;;;;;;;;;18.99;100.00;99739.00;5073545;28;19998;-77
2022/07/15 07:51:59;;;;;;;;;;;;;;;18.89;100.00;99728.88;5073931;28;19924;-76
2022/07/15 07:54:26;;;;;;;;;;;;;;;19.51;100.00;99731.22;5073678;28;20332;-77
2022/07/15 07:56:54;;;;;;;;;;;;;;;19.77;100.00;99730.94;5074691;28;19930;-77
2022/07/15 07:59:21;;;;;;;;;;;;;;;19.73;100.00;99720.53;5056823;28;19932;-77
2022/07/15 08:01:49;;;;;;;;;;;;;;;19.98;100.00;99718.72;5056985;28;19924;-77
2022/07/15 08:04:16;;;;;;;;;;;;;;;20.20;100.00;99725.03;5073250;28;19963;-77
2022/07/15 08:06:43;;;;;;;;;;;;;;;19.86;100.00;99723.25;5074552;28;20027;-77
2022/07/15 08:09:10;;;;;;;;;;;;;;;20.29;100.00;99716.53;5074505;28;20019;-78
2022/07/15 08:11:40;;;;;;;;;;;;;;;20.64;100.00;99715.72;5073383;28;19999;-78
2022/07/15 08:14:07;;;;;;;;;;;;;;;20.36;100.00;99710.53;5074415;28;19925;-77
2022/07/15 08:16:34;;;;;;;;;;;;;;;21.04;100.00;99704.88;5089764;28;20296;-77
2022/07/15 08:19:01;;;;;;;;;;;;;;;21.80;100.00;99709.22;5072994;28;20017;-77
2022/07/15 08:21:28;;;;;;;;;;;;;;;21.25;100.00;99726.56;5074332;28;19924;-77
2022/07/15 08:23:55;;;;;;;;;;;;;;;20.21;100.00;99738.75;5074161;28;20431;-77
2022/07/15 08:26:25;;;;;;;;;;;;;;;20.15;100.00;99740.66;5072928;28;19928;-77
2022/07/15 08:28:52;;;;;;;;;;;;;;;19.39;100.00;99740.63;5056312;28;20018;-77
2022/07/15 08:31:29;;;;;;;;;;;;;;;19.45;100.00;99732.28;5056421;28;19931;-77
2022/07/15 08:33:56;;;;;;;;;;;;;;;19.01;100.00;99737.28;5073806;28;20393;-77
2022/07/15 08:36:23;;;;;;;;;;;;;;;19.49;100.00;99730.88;5072778;28;19925;-77
2022/07/15 08:38:50;;;;;;;;;;;;;;;19.01;100.00;99725.97;5055953;28;20070;-77
2022/07/15 08:41:17;;;;;;;;;;;;;;;18.89;100.00;99741.00;5072679;28;20379;-77
2022/07/15 08:43:45;;;;;;;;;;;;;;;18.95;100.00;99730.66;5056126;28;19932;-77
2022/07/15 08:46:13;;;;;;;;;;;;;;;18.71;100.00;99734.44;5072618;28;19924;-77
2022/07/15 08:48:40;;;;;;;;;;;;;;;18.70;100.00;99728.00;5072370;28;19983;-77
2022/07/15 08:51:07;;;;;;;;;;;;;;;18.66;100.00;99724.50;5055810;28;20011;-77
2022/07/15 08:53:34;;;;;;;;;;;;;;;19.03;100.00;99717.78;5072314;28;20443;-77
2022/07/15 08:56:02;;;;;;;;;;;;;;;19.47;100.00;99722.09;5072151;28;20345;-77
2022/07/15 08:58:30;;;;;;;;;;;;;;;19.97;100.00;99711.44;5072310;28;19932;-77
2022/07/15 09:01:14;;;;;;;;;;;;;;;19.85;100.00;99715.22;5072455;28;20005;-77
2022/07/15 09:03:41;;;;;;;;;;;;;;;19.98;100.00;99713.03;5072255;28;19970;-77
2022/07/15 09:06:08;;;;;;;;;;;;;;;19.96;100.00;99710.69;5073367;28;19924;-77
2022/07/15 09:08:35;;;;;;;;;;;;;;;20.20;100.00;99711.66;5055806;28;19925;-77
2022/07/15 09:11:02;;;;;;;;;;;;;;;20.52;100.00;99704.53;5055604;28;20387;-77
2022/07/15 09:13:30;;;;;;;;;;;;;;;20.17;100.00;99708.97;5055526;28;19925;-77
2022/07/15 09:16:08;;;;;;;;;;;;;;;19.95;100.00;99714.75;5071920;28;20011;-77
2022/07/15 09:18:38;;;;;;;;;;;;;;;20.00;100.00;99719.00;5072039;28;19925;-77
2022/07/15 09:21:22;;;;;;;;;;;;;;;20.45;100.00;99719.03;5072123;28;19956;-77
2022/07/15 09:23:50;;;;;;;;;;;;;;;20.17;100.00;99720.31;5055331;28;20283;-77
2022/07/15 09:26:26;;;;;;;;;;;;;;;20.08;100.00;99717.44;5055157;28;19972;-77
2022/07/15 09:28:53;;;;;;;;;;;;;;;20.28;100.00;99701.53;5071911;28;19925;-77
2022/07/15 09:34:17;;;;;;;;;;;;;;;20.50;100.00;99695.69;5073349;28;19924;-77
2022/07/15 09:36:50;;;;;;;;;;;;;;;20.46;100.00;99698.69;5055291;28;19925;-77
2022/07/15 09:39:19;;;;;;;;;;;;;;;20.61;100.00;99690.31;5072949;28;19924;-77
2022/07/15 09:41:46;;;;;;;;;;;;;;;19.87;100.00;99704.19;5055463;28;19974;-77
2022/07/15 09:44:14;;;;;;;;;;;;;;;20.10;100.00;99704.34;5071791;28;19925;-77
2022/07/15 09:46:49;;;;;;;;;;;;;;;20.16;100.00;99696.81;5054968;28;19925;-77
2022/07/15 09:49:17;;;;;;;;;;;;;;;20.12;100.00;99689.69;5055143;28;19935;-77
2022/07/15 09:51:49;;;;;;;;;;;;;;;20.76;100.00;99682.69;5072848;28;19928;-77
2022/07/15 09:54:17;;;;;;;;;;;;;;;20.11;100.00;99676.78;5055140;28;19928;-77
2022/07/15 09:56:48;;;;;;;;;;;;;;;20.15;100.00;99677.44;5038590;28;20030;-77
2022/07/15 09:59:16;;;;;;;;;;;;;;;20.73;100.00;99672.28;5071573;28;19978;-77
2022/07/15 10:01:44;;;;;;;;;;;;;;;21.04;100.00;99667.16;5038759;28;20272;-77
2022/07/15 10:04:11;;;;;;;;;;;;;;;21.31;100.00;99662.13;5073593;28;19947;-77
2022/07/15 10:06:38;;;;;;;;;;;;;;;20.97;100.00;99658.97;5075659;28;20379;-77
2022/07/15 10:09:06;;;;;;;;;;;;;;;20.97;100.00;99667.50;5058926;28;20007;-77
2022/07/15 10:11:35;;;;;;;;;;;;;;;21.01;100.00;99660.38;5059209;28;19951;-77
2022/07/15 10:14:21;;;;;;;;;;;;;;;20.36;100.00;99665.09;5075315;28;19925;-77
2022/07/15 10:16:48;;;;;;;;;;;;;;;20.41;100.00;99668.13;5058616;28;19924;-77
2022/07/15 10:19:34;;;;;;;;;;;;;;;20.42;100.00;99675.34;5075416;28;20399;-77
2022/07/15 10:22:30;;;;;;;;;;;;;;;20.59;100.00;99668.06;5058772;28;19928;-77
2022/07/15 10:25:03;;;;;;;;;;;;;;;21.07;100.00;99669.81;5076578;28;19925;-77
2022/07/15 10:27:54;;;;;;;;;;;;;;;21.10;100.00;99676.59;5076388;28;19925;-77
2022/07/15 10:30:22;;;;;;;;;;;;;;;19.92;100.00;99683.72;5076311;28;20375;-77
2022/07/15 10:33:10;;;;;;;;;;;;;;;19.53;100.00;99689.03;5058499;28;19987;-77
2022/07/15 10:35:45;;;;;;;;;;;;;;;19.42;100.00;99688.69;5075175;28;19924;-77
2022/07/15 10:38:26;;;;;;;;;;;;;;;19.17;100.00;99699.44;5058316;28;19924;-77
2022/07/15 10:40:58;;;;;;;;;;;;;;;19.56;100.00;99704.31;5075028;28;20364;-77
2022/07/15 10:43:36;;;;;;;;;;;;;;;19.78;100.00;99709.88;5075952;28;19924;-77
2022/07/15 10:46:28;;;;;;;;;;;;;;;20.14;100.00;99704.25;5058945;28;19928;-77
2022/07/15 10:48:58;;;;;;;;;;;;;;;20.92;100.00;99703.00;5074900;28;19974;-77
2022/07/15 10:51:34;;;;;;;;;;;;;;;20.76;100.00;99706.22;5058276;28;20384;-77
2022/07/15 10:54:10;;;;;;;;;;;;;;;20.89;100.00;99697.47;5075857;28;20087;-77
2022/07/15 10:56:41;;;;;;;;;;;;;;;21.35;100.00;99696.84;5074766;28;19928;-77
2022/07/15 10:59:11;;;;;;;;;;;;;;;21.38;100.00;99689.41;5074426;28;19925;-77
2022/07/15 11:01:39;;;;;;;;;;;;;;;20.99;100.00;99701.91;5075921;28;19935;-77
2022/07/15 11:04:09;;;;;;;;;;;;;;;21.03;100.00;99691.16;5058017;28;19932;-77
2022/07/15 11:07:12;;;;;;;;;;;;;;;21.38;100.00;99700.78;5075628;28;19924;-77
2022/07/15 11:09:58;;;;;;;;;;;;;;;21.29;100.00;99686.63;5033342;28;20008;-77
2022/07/15 11:12:28;;;;;;;;;;;;;;;21.27;100.00;99683.47;5033262;28;20372;-77
2022/07/15 11:14:56;;;;;;;;;;;;;;;21.40;100.00;99693.34;5000467;28;19925;-77
2022/07/15 11:17:24;;;;;;;;;;;;;;;21.24;100.00;99673.06;5016525;28;19933;-77
2022/07/15 11:19:53;;;;;;;;;;;;;;;22.13;100.00;99681.50;5016151;28;19932;-78
2022/07/15 11:22:22;;;;;;;;;;;;;;;21.77;100.00;99659.00;5033143;28;19964;-77
2022/07/15 11:24:50;;;;;;;;;;;;;;;21.47;100.00;99660.94;5033187;28;20367;-78
2022/07/15 11:27:18;;;;;;;;;;;;;;;21.48;100.00;99665.34;5016449;28;20303;-78
2022/07/15 11:29:45;;;;;;;;;;;;;;;21.68;100.00;99667.56;5033009;28;19929;-77
2022/07/15 11:32:13;;;;;;;;;;;;;;;21.94;100.00;99654.44;5033077;28;19932;-77
2022/07/15 11:34:45;;;;;;;;;;;;;;;22.31;100.00;99642.25;5033087;28;19952;-78
2022/07/15 11:37:18;;;;;;;;;;;;;;;22.31;100.00;99644.31;5032959;28;20439;-78
2022/07/15 11:39:46;;;;;;;;;;;;;;;21.80;100.00;99647.44;5016304;28;20355;-78
2022/07/15 11:45:07;;;;;;;;;;;;;;;22.18;100.00;99641.75;5075097;28;19930;-78
2022/07/15 11:47:35;;;;;;;;;;;;;;;21.75;100.00;99642.41;5057191;28;19967;-78
2022/07/15 11:50:04;;;;;;;;;;;;;;;21.45;100.00;99649.25;5056867;28;20364;-78
2022/07/15 11:52:31;;;;;;;;;;;;;;;21.34;100.00;99643.34;5074905;28;20006;-78
2022/07/15 11:54:58;;;;;;;;;;;;;;;21.42;100.00;99642.47;5073703;28;20343;-78
2022/07/15 11:57:32;;;;;;;;;;;;;;;21.96;100.00;99641.31;5073773;28;20372;-78
2022/07/15 11:59:59;;;;;;;;;;;;;;;22.20;100.00;99630.69;5074746;28;19924;-78
2022/07/15 12:02:28;;;;;;;;;;;;;;;22.98;100.00;99625.06;5073470;28;19925;-78
2022/07/15 12:05:03;;;;;;;;;;;;;;;23.05;100.00;99616.09;5073214;28;19925;-78
2022/07/15 12:07:44;;;;;;;;;;;;;;;22.99;100.00;99617.31;5073359;28;20415;-78
2022/07/15 12:10:11;;;;;;;;;;;;;;;22.13;100.00;99631.03;5074426;28;19924;-78
2022/07/15 12:12:40;;;;;;;;;;;;;;;22.78;100.00;99590.03;5074503;28;20325;-78
2022/07/15 12:15:07;;;;;;;;;;;;;;;23.42;100.00;99598.50;5073232;28;19947;-78
2022/07/15 12:17:35;;;;;;;;;;;;;;;23.48;100.00;99613.63;5074138;28;20443;-78
2022/07/15 12:20:04;;;;;;;;;;;;;;;22.26;100.00;99611.63;5073106;28;19931;-78
2022/07/15 12:22:31;;;;;;;;;;;;;;;22.42;100.00;99619.69;5073188;28;20395;-78
2022/07/15 12:24:58;;;;;;;;;;;;;;;22.58;100.00;99604.97;5072815;28;19928;-78
2022/07/15 12:27:37;;;;;;;;;;;;;;;22.65;100.00;99593.19;5072036;28;20017;-78
2022/07/15 12:30:06;;;;;;;;;;;;;;;23.05;100.00;99599.00;5073015;28;19928;-78
2022/07/15 12:32:34;;;;;;;;;;;;;;;22.59;100.00;99602.91;5073148;28;19962;-78
2022/07/15 12:35:05;;;;;;;;;;;;;;;22.57;100.00;99609.09;5056229;28;19931;-77
2022/07/15 12:37:32;;;;;;;;;;;;;;;22.31;100.00;99573.16;5074059;28;19931;-77
2022/07/15 12:40:03;;;;;;;;;;;;;;;22.00;100.00;99622.00;5072447;28;19987;-77
2022/07/15 12:42:31;;;;;;;;;;;;;;;22.54;100.00;99615.78;5072741;28;19924;-78
2022/07/15 12:45:24;;;;;;;;;;;;;;;22.65;100.00;99610.28;5072866;28;20027;-78
2022/07/15 12:47:57;;;;;;;;;;;;;;;23.42;100.00;99621.31;5053592;28;19975;-78
2022/07/15 12:50:25;;;;;;;;;;;;;;;22.79;100.00;99622.94;5073733;28;19931;-78
2022/07/15 12:52:53;;;;;;;;;;;;;;;22.56;100.00;99629.53;5072573;28;20021;-78
2022/07/15 12:55:25;;;;;;;;;;;;;;;22.01;100.00;99637.78;5055695;28;19925;-78